Rosenberg, Texas
Current Conditions -  °F | °C
As of 7:53 PM on Saturday 25 Oct 2014 (Local Time) from KSGR Reporting Station
Clear Clear  
Wind Chill: 72°   Ceiling: Unl
Heat Index: 72°   Visibility: 10mi
Dew Point: 60°   Wind: 9mph
Humidity: 66%   Direction: 160°SSE
Pressure: 30.09"   Gusts: NA
Location:  29.55°N, 95.8°W
Report Text: KSGR 260053Z 16008KT 10SM CLR 22/16 A3009 RMK AO2 SLP192 T02220156
Loading
Personal Weather Stations






























Interactive Weather Map
Tropical Storm Tracking
New forecast layout! Learn more

10-Day Weather Forecast

Advertisements
Track Severe Weather on mobile